sensor_id;sensor_type;location;lat;lon;timestamp;P1;durP1;ratioP1;P2;durP2;ratioP2
33579;SDS011;19909;43.644;-79.438;2022-08-07T00:13:32;0.40;;;0.20;;
33579;SDS011;19909;43.644;-79.438;2022-08-07T00:16:02;0.60;;;0.20;;
33579;SDS011;19909;43.644;-79.438;2022-08-07T00:21:05;0.20;;;0.20;;
33579;SDS011;19909;43.644;-79.438;2022-08-07T00:28:41;0.30;;;0.30;;
33579;SDS011;19909;43.644;-79.438;2022-08-07T00:33:43;0.20;;;0.17;;
33579;SDS011;19909;43.644;-79.438;2022-08-07T00:36:09;0.93;;;0.40;;
33579;SDS011;19909;43.644;-79.438;2022-08-07T00:38:36;0.52;;;0.20;;
33579;SDS011;19909;43.644;-79.438;2022-08-07T00:43:31;0.40;;;0.22;;
33579;SDS011;19909;43.644;-79.438;2022-08-07T00:45:58;0.30;;;0.30;;
33579;SDS011;19909;43.644;-79.438;2022-08-07T00:48:25;0.50;;;0.35;;
33579;SDS011;19909;43.644;-79.438;2022-08-07T00:50:52;0.30;;;0.30;;
33579;SDS011;19909;43.644;-79.438;2022-08-07T00:53:22;0.55;;;0.22;;
33579;SDS011;19909;43.644;-79.438;2022-08-07T00:55:48;0.38;;;0.32;;
33579;SDS011;19909;43.644;-79.438;2022-08-07T00:58:14;0.35;;;0.28;;
33579;SDS011;19909;43.644;-79.438;2022-08-07T01:00:42;0.45;;;0.30;;
33579;SDS011;19909;43.644;-79.438;2022-08-07T01:03:08;0.60;;;0.40;;
33579;SDS011;19909;43.644;-79.438;2022-08-07T01:05:36;0.35;;;0.35;;
33579;SDS011;19909;43.644;-79.438;2022-08-07T01:08:04;0.45;;;0.40;;
33579;SDS011;19909;43.644;-79.438;2022-08-07T01:10:30;0.50;;;0.40;;
33579;SDS011;19909;43.644;-79.438;2022-08-07T01:12:57;0.40;;;0.28;;
33579;SDS011;19909;43.644;-79.438;2022-08-07T01:17:50;0.55;;;0.40;;
33579;SDS011;19909;43.644;-79.438;2022-08-07T01:20:32;0.30;;;0.30;;
33579;SDS011;19909;43.644;-79.438;2022-08-07T01:23:06;0.20;;;0.20;;
33579;SDS011;19909;43.644;-79.438;2022-08-07T01:25:32;0.35;;;0.30;;
33579;SDS011;19909;43.644;-79.438;2022-08-07T01:28:00;0.40;;;0.40;;
33579;SDS011;19909;43.644;-79.438;2022-08-07T01:30:26;0.80;;;0.45;;
33579;SDS011;19909;43.644;-79.438;2022-08-07T01:32:55;0.77;;;0.40;;
33579;SDS011;19909;43.644;-79.438;2022-08-07T01:35:22;0.65;;;0.40;;
33579;SDS011;19909;43.644;-79.438;2022-08-07T01:37:48;0.93;;;0.70;;
33579;SDS011;19909;43.644;-79.438;2022-08-07T01:40:15;0.50;;;0.50;;
33579;SDS011;19909;43.644;-79.438;2022-08-07T01:42:46;0.65;;;0.50;;
33579;SDS011;19909;43.644;-79.438;2022-08-07T01:45:12;0.50;;;0.50;;
33579;SDS011;19909;43.644;-79.438;2022-08-07T01:47:40;0.65;;;0.47;;
33579;SDS011;19909;43.644;-79.438;2022-08-07T01:50:06;0.30;;;0.30;;
33579;SDS011;19909;43.644;-79.438;2022-08-07T01:52:33;0.45;;;0.43;;
33579;SDS011;19909;43.644;-79.438;2022-08-07T01:55:00;0.68;;;0.43;;
33579;SDS011;19909;43.644;-79.438;2022-08-07T01:57:29;0.35;;;0.30;;
33579;SDS011;19909;43.644;-79.438;2022-08-07T02:02:34;0.52;;;0.45;;
33579;SDS011;19909;43.644;-79.438;2022-08-07T02:07:53;0.40;;;0.40;;
33579;SDS011;19909;43.644;-79.438;2022-08-07T02:10:22;0.47;;;0.30;;
33579;SDS011;19909;43.644;-79.438;2022-08-07T02:12:50;0.50;;;0.40;;
33579;SDS011;19909;43.644;-79.438;2022-08-07T02:15:22;0.50;;;0.40;;
33579;SDS011;19909;43.644;-79.438;2022-08-07T02:17:50;0.40;;;0.40;;
33579;SDS011;19909;43.644;-79.438;2022-08-07T02:20:17;0.75;;;0.40;;
33579;SDS011;19909;43.644;-79.438;2022-08-07T02:22:45;0.43;;;0.25;;
33579;SDS011;19909;43.644;-79.438;2022-08-07T02:25:14;0.43;;;0.40;;
33579;SDS011;19909;43.644;-79.438;2022-08-07T02:30:08;0.77;;;0.43;;
33579;SDS011;19909;43.644;-79.438;2022-08-07T02:32:36;0.50;;;0.45;;
33579;SDS011;19909;43.644;-79.438;2022-08-07T02:35:06;1.27;;;0.40;;
33579;SDS011;19909;43.644;-79.438;2022-08-07T02:37:36;0.30;;;0.30;;
33579;SDS011;19909;43.644;-79.438;2022-08-07T02:40:11;0.98;;;0.40;;
33579;SDS011;19909;43.644;-79.438;2022-08-07T02:42:45;1.73;;;0.50;;
33579;SDS011;19909;43.644;-79.438;2022-08-07T02:45:16;1.02;;;0.43;;
33579;SDS011;19909;43.644;-79.438;2022-08-07T02:47:41;1.10;;;0.40;;
33579;SDS011;19909;43.644;-79.438;2022-08-07T02:50:08;0.70;;;0.50;;
33579;SDS011;19909;43.644;-79.438;2022-08-07T02:55:13;0.90;;;0.45;;
33579;SDS011;19909;43.644;-79.438;2022-08-07T03:03:16;1.00;;;0.40;;
33579;SDS011;19909;43.644;-79.438;2022-08-07T03:05:49;0.80;;;0.50;;
33579;SDS011;19909;43.644;-79.438;2022-08-07T03:15:51;0.85;;;0.50;;
33579;SDS011;19909;43.644;-79.438;2022-08-07T03:18:25;0.40;;;0.30;;
33579;SDS011;19909;43.644;-79.438;2022-08-07T03:23:27;0.47;;;0.47;;
33579;SDS011;19909;43.644;-79.438;2022-08-07T03:25:55;0.50;;;0.40;;
33579;SDS011;19909;43.644;-79.438;2022-08-07T03:28:24;0.20;;;0.20;;
33579;SDS011;19909;43.644;-79.438;2022-08-07T03:30:53;0.95;;;0.40;;
33579;SDS011;19909;43.644;-79.438;2022-08-07T03:33:34;0.45;;;0.30;;
33579;SDS011;19909;43.644;-79.438;2022-08-07T03:36:01;0.47;;;0.40;;
33579;SDS011;19909;43.644;-79.438;2022-08-07T03:38:29;0.50;;;0.50;;
33579;SDS011;19909;43.644;-79.438;2022-08-07T03:40:56;0.20;;;0.20;;
33579;SDS011;19909;43.644;-79.438;2022-08-07T03:43:25;0.88;;;0.40;;
33579;SDS011;19909;43.644;-79.438;2022-08-07T03:45:52;2.15;;;0.63;;
33579;SDS011;19909;43.644;-79.438;2022-08-07T03:48:18;0.30;;;0.30;;
33579;SDS011;19909;43.644;-79.438;2022-08-07T03:50:45;2.10;;;0.50;;
33579;SDS011;19909;43.644;-79.438;2022-08-07T03:53:13;0.80;;;0.40;;
33579;SDS011;19909;43.644;-79.438;2022-08-07T03:55:45;0.73;;;0.32;;
33579;SDS011;19909;43.644;-79.438;2022-08-07T03:58:11;0.30;;;0.20;;
33579;SDS011;19909;43.644;-79.438;2022-08-07T04:00:40;1.35;;;0.35;;
33579;SDS011;19909;43.644;-79.438;2022-08-07T04:03:07;3.60;;;0.50;;
33579;SDS011;19909;43.644;-79.438;2022-08-07T04:05:34;4.07;;;0.40;;
33579;SDS011;19909;43.644;-79.438;2022-08-07T04:08:02;15.63;;;1.98;;
33579;SDS011;19909;43.644;-79.438;2022-08-07T04:10:29;22.73;;;2.47;;
33579;SDS011;19909;43.644;-79.438;2022-08-07T04:12:57;46.13;;;4.35;;
33579;SDS011;19909;43.644;-79.438;2022-08-07T04:15:23;43.45;;;5.07;;
33579;SDS011;19909;43.644;-79.438;2022-08-07T04:17:51;22.75;;;2.45;;
33579;SDS011;19909;43.644;-79.438;2022-08-07T04:22:55;5.38;;;1.13;;
33579;SDS011;19909;43.644;-79.438;2022-08-07T04:25:25;6.03;;;1.33;;
33579;SDS011;19909;43.644;-79.438;2022-08-07T04:30:28;2.08;;;0.68;;
33579;SDS011;19909;43.644;-79.438;2022-08-07T04:32:56;5.20;;;0.80;;
33579;SDS011;19909;43.644;-79.438;2022-08-07T04:37:58;5.95;;;0.90;;
33579;SDS011;19909;43.644;-79.438;2022-08-07T04:40:28;1.13;;;0.45;;
33579;SDS011;19909;43.644;-79.438;2022-08-07T04:42:56;1.10;;;0.47;;
33579;SDS011;19909;43.644;-79.438;2022-08-07T04:45:23;1.23;;;0.40;;
33579;SDS011;19909;43.644;-79.438;2022-08-07T04:53:36;0.70;;;0.35;;
33579;SDS011;19909;43.644;-79.438;2022-08-07T04:56:14;0.30;;;0.30;;
33579;SDS011;19909;43.644;-79.438;2022-08-07T05:04:53;0.28;;;0.28;;
33579;SDS011;19909;43.644;-79.438;2022-08-07T05:07:57;0.50;;;0.40;;
33579;SDS011;19909;43.644;-79.438;2022-08-07T05:10:32;0.75;;;0.60;;
33579;SDS011;19909;43.644;-79.438;2022-08-07T05:13:08;0.52;;;0.40;;
33579;SDS011;19909;43.644;-79.438;2022-08-07T05:15:43;0.47;;;0.32;;
33579;SDS011;19909;43.644;-79.438;2022-08-07T05:18:21;0.20;;;0.20;;
33579;SDS011;19909;43.644;-79.438;2022-08-07T05:20:56;0.28;;;0.28;;
33579;SDS011;19909;43.644;-79.438;2022-08-07T05:23:47;0.40;;;0.40;;
33579;SDS011;19909;43.644;-79.438;2022-08-07T05:26:25;0.50;;;0.40;;
33579;SDS011;19909;43.644;-79.438;2022-08-07T05:31:32;0.20;;;0.20;;
33579;SDS011;19909;43.644;-79.438;2022-08-07T05:34:05;0.38;;;0.38;;
33579;SDS011;19909;43.644;-79.438;2022-08-07T05:36:35;0.50;;;0.50;;
33579;SDS011;19909;43.644;-79.438;2022-08-07T05:41:45;0.32;;;0.32;;
33579;SDS011;19909;43.644;-79.438;2022-08-07T05:44:38;0.60;;;0.47;;
33579;SDS011;19909;43.644;-79.438;2022-08-07T05:47:10;0.28;;;0.28;;
33579;SDS011;19909;43.644;-79.438;2022-08-07T05:49:38;0.40;;;0.40;;
33579;SDS011;19909;43.644;-79.438;2022-08-07T05:52:05;0.30;;;0.30;;
33579;SDS011;19909;43.644;-79.438;2022-08-07T05:57:13;0.25;;;0.25;;
33579;SDS011;19909;43.644;-79.438;2022-08-07T05:59:41;0.50;;;0.32;;
33579;SDS011;19909;43.644;-79.438;2022-08-07T06:04:38;0.40;;;0.40;;
33579;SDS011;19909;43.644;-79.438;2022-08-07T06:12:13;0.45;;;0.35;;
33579;SDS011;19909;43.644;-79.438;2022-08-07T06:17:42;0.30;;;0.30;;
33579;SDS011;19909;43.644;-79.438;2022-08-07T06:20:22;0.88;;;0.50;;
33579;SDS011;19909;43.644;-79.438;2022-08-07T06:22:49;0.45;;;0.40;;
33579;SDS011;19909;43.644;-79.438;2022-08-07T06:25:17;1.10;;;0.60;;
33579;SDS011;19909;43.644;-79.438;2022-08-07T06:27:44;0.30;;;0.30;;
33579;SDS011;19909;43.644;-79.438;2022-08-07T06:30:10;0.50;;;0.50;;
33579;SDS011;19909;43.644;-79.438;2022-08-07T06:32:37;0.85;;;0.40;;
33579;SDS011;19909;43.644;-79.438;2022-08-07T06:35:03;0.63;;;0.30;;
33579;SDS011;19909;43.644;-79.438;2022-08-07T06:37:30;0.40;;;0.25;;
33579;SDS011;19909;43.644;-79.438;2022-08-07T06:39:56;0.90;;;0.50;;
33579;SDS011;19909;43.644;-79.438;2022-08-07T06:42:26;0.40;;;0.40;;
33579;SDS011;19909;43.644;-79.438;2022-08-07T06:45:02;0.35;;;0.35;;
33579;SDS011;19909;43.644;-79.438;2022-08-07T06:50:10;0.30;;;0.30;;
33579;SDS011;19909;43.644;-79.438;2022-08-07T06:52:38;0.40;;;0.40;;
33579;SDS011;19909;43.644;-79.438;2022-08-07T07:03:49;0.32;;;0.32;;
33579;SDS011;19909;43.644;-79.438;2022-08-07T07:06:21;0.50;;;0.40;;
33579;SDS011;19909;43.644;-79.438;2022-08-07T07:08:50;0.50;;;0.30;;
33579;SDS011;19909;43.644;-79.438;2022-08-07T07:11:17;0.30;;;0.30;;
33579;SDS011;19909;43.644;-79.438;2022-08-07T07:16:17;0.20;;;0.20;;
33579;SDS011;19909;43.644;-79.438;2022-08-07T07:18:53;0.20;;;0.20;;
33579;SDS011;19909;43.644;-79.438;2022-08-07T07:21:31;0.20;;;0.20;;
33579;SDS011;19909;43.644;-79.438;2022-08-07T07:24:03;0.47;;;0.47;;
33579;SDS011;19909;43.644;-79.438;2022-08-07T07:26:30;0.32;;;0.30;;
33579;SDS011;19909;43.644;-79.438;2022-08-07T07:29:00;0.50;;;0.40;;
33579;SDS011;19909;43.644;-79.438;2022-08-07T07:31:33;0.20;;;0.20;;
33579;SDS011;19909;43.644;-79.438;2022-08-07T07:34:09;0.40;;;0.40;;
33579;SDS011;19909;43.644;-79.438;2022-08-07T07:36:39;0.40;;;0.40;;
33579;SDS011;19909;43.644;-79.438;2022-08-07T07:39:08;0.35;;;0.30;;
33579;SDS011;19909;43.644;-79.438;2022-08-07T07:41:37;0.30;;;0.30;;
33579;SDS011;19909;43.644;-79.438;2022-08-07T07:44:06;0.30;;;0.30;;
33579;SDS011;19909;43.644;-79.438;2022-08-07T07:49:11;0.30;;;0.30;;
33579;SDS011;19909;43.644;-79.438;2022-08-07T07:51:42;0.30;;;0.30;;
33579;SDS011;19909;43.644;-79.438;2022-08-07T07:54:10;0.13;;;0.13;;
33579;SDS011;19909;43.644;-79.438;2022-08-07T07:56:39;0.25;;;0.20;;
33579;SDS011;19909;43.644;-79.438;2022-08-07T07:59:07;0.20;;;0.20;;
33579;SDS011;19909;43.644;-79.438;2022-08-07T08:01:36;0.73;;;0.30;;
33579;SDS011;19909;43.644;-79.438;2022-08-07T08:04:08;0.30;;;0.30;;
33579;SDS011;19909;43.644;-79.438;2022-08-07T08:06:36;0.30;;;0.30;;
33579;SDS011;19909;43.644;-79.438;2022-08-07T08:09:04;0.20;;;0.20;;
33579;SDS011;19909;43.644;-79.438;2022-08-07T08:11:32;0.45;;;0.40;;
33579;SDS011;19909;43.644;-79.438;2022-08-07T08:14:00;0.30;;;0.30;;
33579;SDS011;19909;43.644;-79.438;2022-08-07T08:16:38;0.43;;;0.30;;
33579;SDS011;19909;43.644;-79.438;2022-08-07T08:19:07;0.30;;;0.30;;
33579;SDS011;19909;43.644;-79.438;2022-08-07T08:21:36;0.35;;;0.30;;
33579;SDS011;19909;43.644;-79.438;2022-08-07T08:24:24;0.30;;;0.30;;
33579;SDS011;19909;43.644;-79.438;2022-08-07T08:27:12;0.20;;;0.20;;
33579;SDS011;19909;43.644;-79.438;2022-08-07T08:29:45;0.38;;;0.38;;
33579;SDS011;19909;43.644;-79.438;2022-08-07T08:34:47;0.30;;;0.30;;
33579;SDS011;19909;43.644;-79.438;2022-08-07T08:37:16;0.20;;;0.20;;
33579;SDS011;19909;43.644;-79.438;2022-08-07T08:39:43;0.40;;;0.20;;
33579;SDS011;19909;43.644;-79.438;2022-08-07T08:45:04;0.20;;;0.20;;
33579;SDS011;19909;43.644;-79.438;2022-08-07T08:50:29;0.20;;;0.20;;
33579;SDS011;19909;43.644;-79.438;2022-08-07T08:55:57;0.28;;;0.28;;
33579;SDS011;19909;43.644;-79.438;2022-08-07T09:09:16;0.95;;;0.22;;
33579;SDS011;19909;43.644;-79.438;2022-08-07T09:11:57;0.20;;;0.20;;
33579;SDS011;19909;43.644;-79.438;2022-08-07T09:14:51;0.20;;;0.20;;
33579;SDS011;19909;43.644;-79.438;2022-08-07T09:17:34;0.10;;;0.10;;
33579;SDS011;19909;43.644;-79.438;2022-08-07T09:20:30;0.25;;;0.20;;
33579;SDS011;19909;43.644;-79.438;2022-08-07T09:26:13;0.32;;;0.30;;
33579;SDS011;19909;43.644;-79.438;2022-08-07T09:28:53;0.47;;;0.30;;
33579;SDS011;19909;43.644;-79.438;2022-08-07T09:34:43;0.43;;;0.30;;
33579;SDS011;19909;43.644;-79.438;2022-08-07T09:37:42;0.40;;;0.30;;
33579;SDS011;19909;43.644;-79.438;2022-08-07T09:42:59;0.30;;;0.20;;
33579;SDS011;19909;43.644;-79.438;2022-08-07T09:45:54;0.30;;;0.30;;
33579;SDS011;19909;43.644;-79.438;2022-08-07T10:28:14;0.25;;;0.25;;
33579;SDS011;19909;43.644;-79.438;2022-08-07T10:34:14;0.13;;;0.10;;
33579;SDS011;19909;43.644;-79.438;2022-08-07T10:43:06;0.32;;;0.20;;
33579;SDS011;19909;43.644;-79.438;2022-08-07T10:46:17;0.10;;;0.10;;
33579;SDS011;19909;43.644;-79.438;2022-08-07T10:48:54;0.20;;;0.20;;
33579;SDS011;19909;43.644;-79.438;2022-08-07T10:51:56;0.20;;;0.20;;
33579;SDS011;19909;43.644;-79.438;2022-08-07T10:54:40;0.13;;;0.13;;
33579;SDS011;19909;43.644;-79.438;2022-08-07T10:57:25;0.20;;;0.20;;
33579;SDS011;19909;43.644;-79.438;2022-08-07T11:00:15;0.40;;;0.20;;
33579;SDS011;19909;43.644;-79.438;2022-08-07T11:02:45;0.20;;;0.20;;
33579;SDS011;19909;43.644;-79.438;2022-08-07T11:15:53;0.20;;;0.20;;
33579;SDS011;19909;43.644;-79.438;2022-08-07T11:18:30;0.20;;;0.20;;
33579;SDS011;19909;43.644;-79.438;2022-08-07T11:30:17;0.30;;;0.20;;
33579;SDS011;19909;43.644;-79.438;2022-08-07T11:35:40;0.20;;;0.20;;
33579;SDS011;19909;43.644;-79.438;2022-08-07T11:38:39;0.20;;;0.20;;
33579;SDS011;19909;43.644;-79.438;2022-08-07T11:46:57;0.10;;;0.10;;
33579;SDS011;19909;43.644;-79.438;2022-08-07T11:52:35;0.20;;;0.20;;
33579;SDS011;19909;43.644;-79.438;2022-08-07T12:01:20;0.20;;;0.20;;
33579;SDS011;19909;43.644;-79.438;2022-08-07T12:04:07;0.10;;;0.10;;
33579;SDS011;19909;43.644;-79.438;2022-08-07T12:07:11;0.20;;;0.10;;
33579;SDS011;19909;43.644;-79.438;2022-08-07T12:15:29;0.25;;;0.25;;
33579;SDS011;19909;43.644;-79.438;2022-08-07T12:21:00;0.20;;;0.20;;
33579;SDS011;19909;43.644;-79.438;2022-08-07T12:29:09;0.20;;;0.20;;
33579;SDS011;19909;43.644;-79.438;2022-08-07T12:34:06;0.20;;;0.20;;
33579;SDS011;19909;43.644;-79.438;2022-08-07T12:36:35;0.40;;;0.30;;
33579;SDS011;19909;43.644;-79.438;2022-08-07T12:39:05;0.20;;;0.20;;
33579;SDS011;19909;43.644;-79.438;2022-08-07T12:41:33;0.30;;;0.30;;
33579;SDS011;19909;43.644;-79.438;2022-08-07T12:44:03;0.30;;;0.30;;
33579;SDS011;19909;43.644;-79.438;2022-08-07T12:46:39;0.55;;;0.50;;
33579;SDS011;19909;43.644;-79.438;2022-08-07T12:49:52;0.20;;;0.20;;
33579;SDS011;19909;43.644;-79.438;2022-08-07T12:52:59;0.50;;;0.35;;
33579;SDS011;19909;43.644;-79.438;2022-08-07T12:55:45;0.30;;;0.30;;
33579;SDS011;19909;43.644;-79.438;2022-08-07T12:58:34;0.40;;;0.40;;
33579;SDS011;19909;43.644;-79.438;2022-08-07T13:09:26;0.30;;;0.25;;
33579;SDS011;19909;43.644;-79.438;2022-08-07T13:25:16;0.65;;;0.32;;
33579;SDS011;19909;43.644;-79.438;2022-08-07T13:30:15;0.40;;;0.40;;
33579;SDS011;19909;43.644;-79.438;2022-08-07T13:35:17;0.30;;;0.30;;
33579;SDS011;19909;43.644;-79.438;2022-08-07T13:37:54;0.30;;;0.30;;
33579;SDS011;19909;43.644;-79.438;2022-08-07T13:40:42;0.50;;;0.50;;
33579;SDS011;19909;43.644;-79.438;2022-08-07T13:43:13;0.50;;;0.50;;
33579;SDS011;19909;43.644;-79.438;2022-08-07T13:45:43;0.40;;;0.40;;
33579;SDS011;19909;43.644;-79.438;2022-08-07T13:48:11;0.30;;;0.30;;
33579;SDS011;19909;43.644;-79.438;2022-08-07T13:50:39;0.20;;;0.20;;
33579;SDS011;19909;43.644;-79.438;2022-08-07T13:53:07;1.15;;;0.60;;
33579;SDS011;19909;43.644;-79.438;2022-08-07T13:55:35;0.50;;;0.50;;
33579;SDS011;19909;43.644;-79.438;2022-08-07T13:58:07;0.50;;;0.33;;
33579;SDS011;19909;43.644;-79.438;2022-08-07T14:00:56;0.73;;;0.50;;
33579;SDS011;19909;43.644;-79.438;2022-08-07T14:03:29;0.73;;;0.40;;
33579;SDS011;19909;43.644;-79.438;2022-08-07T14:06:05;0.40;;;0.40;;
33579;SDS011;19909;43.644;-79.438;2022-08-07T14:08:37;0.60;;;0.60;;
33579;SDS011;19909;43.644;-79.438;2022-08-07T14:11:11;0.60;;;0.52;;
33579;SDS011;19909;43.644;-79.438;2022-08-07T14:13:39;0.43;;;0.40;;
33579;SDS011;19909;43.644;-79.438;2022-08-07T14:16:08;0.73;;;0.70;;
33579;SDS011;19909;43.644;-79.438;2022-08-07T14:18:46;0.65;;;0.65;;
33579;SDS011;19909;43.644;-79.438;2022-08-07T14:21:18;0.40;;;0.40;;
33579;SDS011;19909;43.644;-79.438;2022-08-07T14:24:07;2.05;;;0.73;;
33579;SDS011;19909;43.644;-79.438;2022-08-07T14:26:42;0.50;;;0.50;;
33579;SDS011;19909;43.644;-79.438;2022-08-07T14:29:15;0.68;;;0.65;;
33579;SDS011;19909;43.644;-79.438;2022-08-07T14:31:48;0.40;;;0.40;;
33579;SDS011;19909;43.644;-79.438;2022-08-07T14:34:15;0.68;;;0.68;;
33579;SDS011;19909;43.644;-79.438;2022-08-07T14:36:45;0.93;;;0.60;;
33579;SDS011;19909;43.644;-79.438;2022-08-07T14:39:12;0.93;;;0.68;;
33579;SDS011;19909;43.644;-79.438;2022-08-07T14:41:41;0.40;;;0.40;;
33579;SDS011;19909;43.644;-79.438;2022-08-07T14:44:08;0.52;;;0.50;;
33579;SDS011;19909;43.644;-79.438;2022-08-07T14:46:36;0.75;;;0.40;;
33579;SDS011;19909;43.644;-79.438;2022-08-07T14:49:04;0.75;;;0.47;;
33579;SDS011;19909;43.644;-79.438;2022-08-07T14:55:07;0.50;;;0.50;;
33579;SDS011;19909;43.644;-79.438;2022-08-07T14:57:35;0.50;;;0.50;;
33579;SDS011;19909;43.644;-79.438;2022-08-07T15:00:04;0.50;;;0.50;;
33579;SDS011;19909;43.644;-79.438;2022-08-07T15:02:33;0.70;;;0.60;;
33579;SDS011;19909;43.644;-79.438;2022-08-07T15:05:02;1.00;;;0.50;;
33579;SDS011;19909;43.644;-79.438;2022-08-07T15:07:30;0.60;;;0.60;;
33579;SDS011;19909;43.644;-79.438;2022-08-07T15:09:57;0.60;;;0.52;;
33579;SDS011;19909;43.644;-79.438;2022-08-07T15:12:25;0.80;;;0.80;;
33579;SDS011;19909;43.644;-79.438;2022-08-07T15:15:06;0.68;;;0.60;;
33579;SDS011;19909;43.644;-79.438;2022-08-07T15:17:37;0.80;;;0.80;;
33579;SDS011;19909;43.644;-79.438;2022-08-07T15:20:08;1.17;;;0.88;;
33579;SDS011;19909;43.644;-79.438;2022-08-07T15:22:54;1.02;;;0.93;;
33579;SDS011;19909;43.644;-79.438;2022-08-07T15:25:25;1.05;;;0.98;;
33579;SDS011;19909;43.644;-79.438;2022-08-07T15:27:58;1.10;;;1.00;;
33579;SDS011;19909;43.644;-79.438;2022-08-07T15:30:27;0.60;;;0.60;;
33579;SDS011;19909;43.644;-79.438;2022-08-07T15:32:55;0.93;;;0.82;;
33579;SDS011;19909;43.644;-79.438;2022-08-07T15:35:25;0.98;;;0.85;;
33579;SDS011;19909;43.644;-79.438;2022-08-07T15:37:57;0.88;;;0.88;;
33579;SDS011;19909;43.644;-79.438;2022-08-07T15:40:29;0.80;;;0.80;;
33579;SDS011;19909;43.644;-79.438;2022-08-07T15:43:13;0.80;;;0.70;;
33579;SDS011;19909;43.644;-79.438;2022-08-07T15:45:41;1.08;;;0.98;;
33579;SDS011;19909;43.644;-79.438;2022-08-07T15:50:41;0.80;;;0.80;;
33579;SDS011;19909;43.644;-79.438;2022-08-07T15:55:54;1.10;;;0.93;;
33579;SDS011;19909;43.644;-79.438;2022-08-07T15:58:28;1.27;;;0.80;;
33579;SDS011;19909;43.644;-79.438;2022-08-07T16:01:01;1.42;;;0.90;;
33579;SDS011;19909;43.644;-79.438;2022-08-07T16:03:31;1.30;;;1.10;;
33579;SDS011;19909;43.644;-79.438;2022-08-07T16:06:04;1.20;;;0.95;;
33579;SDS011;19909;43.644;-79.438;2022-08-07T16:08:33;1.30;;;1.20;;
33579;SDS011;19909;43.644;-79.438;2022-08-07T16:11:05;1.20;;;1.10;;
33579;SDS011;19909;43.644;-79.438;2022-08-07T16:16:28;1.27;;;1.17;;
33579;SDS011;19909;43.644;-79.438;2022-08-07T16:22:03;1.65;;;1.38;;
33579;SDS011;19909;43.644;-79.438;2022-08-07T16:24:58;1.48;;;1.35;;
33579;SDS011;19909;43.644;-79.438;2022-08-07T16:27:46;1.40;;;1.30;;
33579;SDS011;19909;43.644;-79.438;2022-08-07T16:30:33;1.20;;;1.10;;
33579;SDS011;19909;43.644;-79.438;2022-08-07T16:33:10;1.58;;;1.40;;
33579;SDS011;19909;43.644;-79.438;2022-08-07T16:35:48;1.25;;;1.15;;
33579;SDS011;19909;43.644;-79.438;2022-08-07T16:38:56;1.38;;;1.27;;
33579;SDS011;19909;43.644;-79.438;2022-08-07T16:44:58;1.23;;;1.13;;
33579;SDS011;19909;43.644;-79.438;2022-08-07T17:08:03;1.58;;;1.30;;
33579;SDS011;19909;43.644;-79.438;2022-08-07T17:16:18;1.23;;;1.13;;
33579;SDS011;19909;43.644;-79.438;2022-08-07T17:21:28;1.42;;;1.33;;
33579;SDS011;19909;43.644;-79.438;2022-08-07T17:35:20;0.88;;;0.88;;
33579;SDS011;19909;43.644;-79.438;2022-08-07T17:43:30;1.23;;;1.08;;
33579;SDS011;19909;43.644;-79.438;2022-08-07T17:46:15;1.40;;;1.15;;
33579;SDS011;19909;43.644;-79.438;2022-08-07T17:48:43;0.75;;;0.75;;
33579;SDS011;19909;43.644;-79.438;2022-08-07T17:56:40;0.93;;;0.80;;
33579;SDS011;19909;43.644;-79.438;2022-08-07T17:59:18;0.93;;;0.82;;
33579;SDS011;19909;43.644;-79.438;2022-08-07T18:01:54;0.93;;;0.82;;
33579;SDS011;19909;43.644;-79.438;2022-08-07T18:09:53;1.10;;;1.00;;
33579;SDS011;19909;43.644;-79.438;2022-08-07T18:12:33;1.20;;;1.10;;
33579;SDS011;19909;43.644;-79.438;2022-08-07T18:15:47;1.02;;;1.00;;
33579;SDS011;19909;43.644;-79.438;2022-08-07T18:18:24;1.27;;;1.17;;
33579;SDS011;19909;43.644;-79.438;2022-08-07T18:23:59;1.50;;;1.40;;
33579;SDS011;19909;43.644;-79.438;2022-08-07T18:38:22;0.77;;;0.77;;
33579;SDS011;19909;43.644;-79.438;2022-08-07T18:43:47;1.42;;;1.33;;
33579;SDS011;19909;43.644;-79.438;2022-08-07T18:49:22;1.10;;;1.00;;
33579;SDS011;19909;43.644;-79.438;2022-08-07T19:03:24;1.20;;;1.10;;
33579;SDS011;19909;43.644;-79.438;2022-08-07T19:06:02;1.40;;;1.17;;
33579;SDS011;19909;43.644;-79.438;2022-08-07T19:20:26;1.38;;;1.27;;
33579;SDS011;19909;43.644;-79.438;2022-08-07T19:25:49;1.35;;;1.25;;
33579;SDS011;19909;43.644;-79.438;2022-08-07T19:28:20;1.00;;;0.93;;
33579;SDS011;19909;43.644;-79.438;2022-08-07T19:30:52;0.75;;;0.70;;
33579;SDS011;19909;43.644;-79.438;2022-08-07T19:33:22;1.23;;;1.10;;
33579;SDS011;19909;43.644;-79.438;2022-08-07T19:35:55;1.60;;;1.50;;
33579;SDS011;19909;43.644;-79.438;2022-08-07T19:38:22;1.10;;;1.00;;
33579;SDS011;19909;43.644;-79.438;2022-08-07T19:40:58;1.20;;;1.10;;
33579;SDS011;19909;43.644;-79.438;2022-08-07T19:43:28;1.27;;;1.17;;
33579;SDS011;19909;43.644;-79.438;2022-08-07T19:45:57;1.25;;;1.15;;
33579;SDS011;19909;43.644;-79.438;2022-08-07T19:48:30;1.30;;;1.20;;
33579;SDS011;19909;43.644;-79.438;2022-08-07T19:51:02;1.40;;;1.30;;
33579;SDS011;19909;43.644;-79.438;2022-08-07T19:53:30;1.38;;;1.27;;
33579;SDS011;19909;43.644;-79.438;2022-08-07T19:55:57;1.85;;;1.73;;
33579;SDS011;19909;43.644;-79.438;2022-08-07T19:58:30;1.55;;;1.40;;
33579;SDS011;19909;43.644;-79.438;2022-08-07T20:00:58;1.33;;;1.23;;
33579;SDS011;19909;43.644;-79.438;2022-08-07T20:03:25;1.80;;;1.70;;
33579;SDS011;19909;43.644;-79.438;2022-08-07T20:06:00;1.50;;;1.40;;
33579;SDS011;19909;43.644;-79.438;2022-08-07T20:08:34;1.70;;;1.48;;
33579;SDS011;19909;43.644;-79.438;2022-08-07T20:11:05;1.45;;;1.35;;
33579;SDS011;19909;43.644;-79.438;2022-08-07T20:13:37;1.20;;;1.10;;
33579;SDS011;19909;43.644;-79.438;2022-08-07T20:16:24;1.60;;;1.50;;
33579;SDS011;19909;43.644;-79.438;2022-08-07T20:18:53;1.30;;;1.20;;
33579;SDS011;19909;43.644;-79.438;2022-08-07T20:21:21;1.33;;;1.20;;
33579;SDS011;19909;43.644;-79.438;2022-08-07T20:23:56;1.45;;;1.35;;
33579;SDS011;19909;43.644;-79.438;2022-08-07T20:26:30;1.67;;;1.52;;
33579;SDS011;19909;43.644;-79.438;2022-08-07T20:28:59;1.37;;;1.27;;
33579;SDS011;19909;43.644;-79.438;2022-08-07T20:31:27;1.30;;;1.20;;
33579;SDS011;19909;43.644;-79.438;2022-08-07T20:33:56;1.23;;;1.13;;
33579;SDS011;19909;43.644;-79.438;2022-08-07T20:36:27;1.48;;;1.38;;
33579;SDS011;19909;43.644;-79.438;2022-08-07T20:38:57;1.13;;;1.02;;
33579;SDS011;19909;43.644;-79.438;2022-08-07T20:41:24;1.92;;;1.33;;
33579;SDS011;19909;43.644;-79.438;2022-08-07T20:43:52;2.53;;;1.73;;
33579;SDS011;19909;43.644;-79.438;2022-08-07T20:46:24;2.42;;;1.23;;
33579;SDS011;19909;43.644;-79.438;2022-08-07T20:48:55;1.35;;;1.23;;
33579;SDS011;19909;43.644;-79.438;2022-08-07T20:51:24;1.80;;;1.40;;
33579;SDS011;19909;43.644;-79.438;2022-08-07T20:53:51;2.08;;;1.20;;
33579;SDS011;19909;43.644;-79.438;2022-08-07T20:56:26;1.35;;;0.98;;
33579;SDS011;19909;43.644;-79.438;2022-08-07T20:58:56;0.88;;;0.88;;
33579;SDS011;19909;43.644;-79.438;2022-08-07T21:01:25;1.75;;;1.10;;
33579;SDS011;19909;43.644;-79.438;2022-08-07T21:03:56;1.05;;;0.95;;
33579;SDS011;19909;43.644;-79.438;2022-08-07T21:06:24;1.45;;;1.20;;
33579;SDS011;19909;43.644;-79.438;2022-08-07T21:09:00;1.13;;;1.02;;
33579;SDS011;19909;43.644;-79.438;2022-08-07T21:11:31;1.13;;;1.02;;
33579;SDS011;19909;43.644;-79.438;2022-08-07T21:14:07;1.10;;;1.00;;
33579;SDS011;19909;43.644;-79.438;2022-08-07T21:16:54;1.23;;;1.13;;
33579;SDS011;19909;43.644;-79.438;2022-08-07T21:19:25;1.15;;;0.77;;
33579;SDS011;19909;43.644;-79.438;2022-08-07T21:21:56;1.25;;;1.15;;
33579;SDS011;19909;43.644;-79.438;2022-08-07T21:24:45;0.88;;;0.88;;